Time;durP1;ratioP1;P1;durP2;ratioP2;P2;SDS_P1;SDS_P2;PMS_P1;PMS_P2;Temp;Humidity;BMP_temperature;BMP_pressure;BME280_temperature;BME280_humidity;BME280_pressure;Samples;Min_cycle;Max_cycle;Signal;HPM_P1;HPM_P2
2022/02/27 00:01:22;;;;;;;19.97;7.67;;;;;;;;;;5039885;28;20181;-67
2022/02/27 00:03:47;;;;;;;23.77;8.23;;;;;;;;;;5041442;28;20276;-67
2022/02/27 00:06:13;;;;;;;21.47;7.63;;;;;;;;;;5053039;28;20192;-67
2022/02/27 00:08:38;;;;;;;23.47;8.17;;;;;;;;;;5047270;28;20189;-68
2022/02/27 00:11:04;;;;;;;22.03;7.93;;;;;;;;;;5053404;28;20200;-67
2022/02/27 00:13:29;;;;;;;20.97;7.13;;;;;;;;;;5044510;28;20550;-67
2022/02/27 00:15:54;;;;;;;24.20;7.73;;;;;;;;;;5050696;28;20228;-67
2022/02/27 00:18:20;;;;;;;20.13;7.60;;;;;;;;;;5042502;28;20208;-67
2022/02/27 00:20:46;;;;;;;17.37;6.83;;;;;;;;;;5048021;28;20625;-68
2022/02/27 00:23:12;;;;;;;20.23;7.57;;;;;;;;;;5042229;28;20204;-68
2022/02/27 00:25:37;;;;;;;23.27;7.50;;;;;;;;;;5050961;28;20257;-68
2022/02/27 00:28:03;;;;;;;21.60;7.77;;;;;;;;;;5043023;28;20220;-67
2022/02/27 00:30:28;;;;;;;16.60;7.60;;;;;;;;;;5052697;28;20295;-67
2022/02/27 00:32:54;;;;;;;21.13;7.30;;;;;;;;;;5050335;28;20189;-67
2022/02/27 00:35:21;;;;;;;28.13;7.37;;;;;;;;;;5039668;28;20288;-67
2022/02/27 00:37:47;;;;;;;26.40;8.63;;;;;;;;;;5047297;28;20189;-66
2022/02/27 00:40:12;;;;;;;22.17;7.90;;;;;;;;;;5045867;28;20209;-67
2022/02/27 00:42:37;;;;;;;19.30;7.90;;;;;;;;;;5045140;28;20197;-66
2022/02/27 00:45:04;;;;;;;18.43;8.00;;;;;;;;;;5048685;28;20549;-67
2022/02/27 00:47:32;;;;;;;16.13;6.97;;;;;;;;;;5044577;28;21154;-67
2022/02/27 00:49:57;;;;;;;18.43;7.80;;;;;;;;;;5047850;28;20224;-67
2022/02/27 00:52:23;;;;;;;19.33;7.50;;;;;;;;;;5045706;28;20225;-67
2022/02/27 00:54:52;;;;;;;17.10;7.33;;;;;;;;;;5048439;28;20555;-67
2022/02/27 00:57:19;;;;;;;23.30;8.13;;;;;;;;;;5037916;28;20198;-67
2022/02/27 00:59:45;;;;;;;16.87;7.70;;;;;;;;;;5048427;28;20192;-67
2022/02/27 01:02:13;;;;;;;20.40;8.40;;;;;;;;;;5052971;28;20552;-67
2022/02/27 01:04:39;;;;;;;21.27;8.60;;;;;;;;;;5043215;28;20207;-67
2022/02/27 01:07:04;;;;;;;21.63;8.53;;;;;;;;;;5050474;28;20252;-67
2022/02/27 01:09:30;;;;;;;23.47;8.57;;;;;;;;;;5042344;28;20193;-67
2022/02/27 01:11:55;;;;;;;19.73;8.03;;;;;;;;;;5044885;28;20201;-67
2022/02/27 01:14:21;;;;;;;15.63;7.70;;;;;;;;;;5041943;28;20193;-67
2022/02/27 01:16:46;;;;;;;18.97;7.77;;;;;;;;;;5056030;28;20237;-67
2022/02/27 01:19:12;;;;;;;24.07;8.30;;;;;;;;;;5049455;28;20184;-66
2022/02/27 01:21:38;;;;;;;19.17;7.87;;;;;;;;;;5055706;28;20505;-66
2022/02/27 01:24:05;;;;;;;18.10;7.20;;;;;;;;;;5045898;28;20212;-67
2022/02/27 01:26:31;;;;;;;20.77;7.73;;;;;;;;;;5049126;28;20208;-67
2022/02/27 01:28:56;;;;;;;15.37;7.57;;;;;;;;;;5045553;28;20173;-67
2022/02/27 01:31:21;;;;;;;20.73;8.33;;;;;;;;;;5048098;28;20220;-67
2022/02/27 01:33:47;;;;;;;31.30;7.23;;;;;;;;;;5045391;28;20625;-67
2022/02/27 01:36:12;;;;;;;22.03;7.90;;;;;;;;;;5043579;28;20269;-68
2022/02/27 01:38:37;;;;;;;16.60;8.40;;;;;;;;;;5042415;28;20193;-67
2022/02/27 01:41:03;;;;;;;22.13;7.97;;;;;;;;;;5049067;28;20201;-68
2022/02/27 01:43:28;;;;;;;18.73;7.87;;;;;;;;;;5040954;28;20536;-67
2022/02/27 01:45:55;;;;;;;20.63;7.63;;;;;;;;;;5044638;28;20204;-67
2022/02/27 01:48:20;;;;;;;18.33;8.03;;;;;;;;;;5042661;28;20185;-67
2022/02/27 01:50:45;;;;;;;23.43;7.70;;;;;;;;;;5038274;28;20662;-68
2022/02/27 01:53:11;;;;;;;20.10;8.00;;;;;;;;;;5039090;28;20717;-67
2022/02/27 01:55:36;;;;;;;19.00;8.50;;;;;;;;;;5052021;28;20196;-67
2022/02/27 01:58:02;;;;;;;19.03;7.53;;;;;;;;;;5045103;28;20672;-67
2022/02/27 02:00:27;;;;;;;18.93;8.47;;;;;;;;;;5053436;28;20185;-66
2022/02/27 02:02:52;;;;;;;18.93;8.33;;;;;;;;;;5037806;28;20273;-66
2022/02/27 02:05:18;;;;;;;13.57;7.30;;;;;;;;;;5046396;28;20200;-66
2022/02/27 02:07:43;;;;;;;25.70;7.40;;;;;;;;;;5043561;28;20204;-66
2022/02/27 02:10:09;;;;;;;18.10;7.90;;;;;;;;;;5047817;28;20177;-66
2022/02/27 02:12:34;;;;;;;28.27;8.47;;;;;;;;;;5040569;28;20223;-66
2022/02/27 02:15:00;;;;;;;19.60;7.60;;;;;;;;;;5040051;28;20236;-66
2022/02/27 02:17:26;;;;;;;16.60;7.07;;;;;;;;;;5044019;28;20246;-66
2022/02/27 02:19:53;;;;;;;20.43;8.60;;;;;;;;;;5045913;28;20540;-66
2022/02/27 02:22:18;;;;;;;20.80;8.17;;;;;;;;;;5043616;28;20246;-66
2022/02/27 02:24:43;;;;;;;17.67;7.23;;;;;;;;;;5045976;28;20181;-66
2022/02/27 02:27:09;;;;;;;20.40;7.73;;;;;;;;;;5040952;28;20623;-66
2022/02/27 02:29:34;;;;;;;22.47;7.83;;;;;;;;;;5045129;28;20200;-66
2022/02/27 02:32:00;;;;;;;20.20;7.50;;;;;;;;;;5043699;28;20205;-66
2022/02/27 02:34:26;;;;;;;20.40;8.50;;;;;;;;;;5044751;28;20308;-67
2022/02/27 02:36:52;;;;;;;26.97;6.93;;;;;;;;;;5045503;28;20205;-66
2022/02/27 02:39:20;;;;;;;21.70;7.40;;;;;;;;;;5045709;28;20544;-66
2022/02/27 02:41:45;;;;;;;26.97;8.17;;;;;;;;;;5045429;28;20201;-66
2022/02/27 02:44:12;;;;;;;30.13;7.50;;;;;;;;;;5044019;28;20668;-66
2022/02/27 02:46:38;;;;;;;18.63;7.13;;;;;;;;;;5039683;28;20702;-66
2022/02/27 02:49:05;;;;;;;23.13;7.43;;;;;;;;;;5046401;28;20258;-66
2022/02/27 02:51:30;;;;;;;22.93;7.63;;;;;;;;;;5045914;28;20185;-66
2022/02/27 02:53:56;;;;;;;19.40;7.07;;;;;;;;;;5045145;28;20181;-66
2022/02/27 02:56:21;;;;;;;18.77;6.90;;;;;;;;;;5045717;28;20213;-66
2022/02/27 02:58:47;;;;;;;15.50;7.43;;;;;;;;;;5045043;28;20174;-66
2022/02/27 03:01:16;;;;;;;21.37;6.97;;;;;;;;;;5036679;28;20224;-66
2022/02/27 03:03:42;;;;;;;21.03;8.13;;;;;;;;;;5040646;28;20246;-66
2022/02/27 03:06:10;;;;;;;24.47;7.20;;;;;;;;;;5043002;28;20185;-66
2022/02/27 03:08:39;;;;;;;15.10;7.57;;;;;;;;;;5045658;28;20182;-66
2022/02/27 03:11:04;;;;;;;32.07;8.13;;;;;;;;;;5048377;28;20755;-67
2022/02/27 03:13:30;;;;;;;21.77;8.57;;;;;;;;;;5046327;28;20231;-67
2022/02/27 03:15:55;;;;;;;17.37;7.77;;;;;;;;;;5043986;28;20275;-67
2022/02/27 03:18:21;;;;;;;24.37;7.80;;;;;;;;;;5045805;28;20204;-67
2022/02/27 03:20:46;;;;;;;25.37;7.47;;;;;;;;;;5044585;28;20193;-67
2022/02/27 03:23:11;;;;;;;26.80;8.33;;;;;;;;;;5043466;28;20242;-67
2022/02/27 03:25:37;;;;;;;26.13;8.47;;;;;;;;;;5032584;28;20181;-67
2022/02/27 03:28:02;;;;;;;23.23;8.23;;;;;;;;;;5041623;28;20213;-67
2022/02/27 03:30:28;;;;;;;21.37;7.07;;;;;;;;;;5047343;28;20664;-69
2022/02/27 03:32:54;;;;;;;27.17;8.47;;;;;;;;;;5043090;28;20196;-67
2022/02/27 03:35:20;;;;;;;19.73;8.00;;;;;;;;;;5043635;28;20577;-67
2022/02/27 03:37:50;;;;;;;22.50;8.30;;;;;;;;;;5041810;28;20185;-66
2022/02/27 03:40:20;;;;;;;18.27;8.30;;;;;;;;;;5039907;28;20182;-67
2022/02/27 03:42:46;;;;;;;16.77;7.87;;;;;;;;;;5041530;28;20188;-67
2022/02/27 03:45:12;;;;;;;26.37;8.83;;;;;;;;;;5043530;28;20576;-67
2022/02/27 03:47:38;;;;;;;19.30;7.53;;;;;;;;;;5039766;28;20247;-67
2022/02/27 03:50:04;;;;;;;31.57;9.27;;;;;;;;;;5042976;28;20273;-67
2022/02/27 03:52:30;;;;;;;22.43;8.13;;;;;;;;;;5040529;28;20189;-67
2022/02/27 03:54:55;;;;;;;24.27;8.27;;;;;;;;;;5045161;28;20199;-66
2022/02/27 03:57:20;;;;;;;22.43;9.13;;;;;;;;;;5042269;28;20193;-67
2022/02/27 03:59:46;;;;;;;23.03;8.33;;;;;;;;;;5042605;28;20185;-67
2022/02/27 04:02:11;;;;;;;28.47;8.80;;;;;;;;;;5041172;28;20247;-67
2022/02/27 04:04:37;;;;;;;32.80;9.10;;;;;;;;;;5046448;28;20476;-67
2022/02/27 04:07:03;;;;;;;32.83;9.60;;;;;;;;;;5041241;28;20297;-67
2022/02/27 04:09:28;;;;;;;18.37;8.80;;;;;;;;;;5043495;28;20653;-67
2022/02/27 04:11:54;;;;;;;23.80;9.13;;;;;;;;;;5045448;28;20301;-67
2022/02/27 04:14:19;;;;;;;24.63;9.20;;;;;;;;;;5047677;28;20593;-67
2022/02/27 04:16:44;;;;;;;29.57;9.13;;;;;;;;;;5045855;28;20216;-67
2022/02/27 04:19:10;;;;;;;29.00;9.77;;;;;;;;;;5046639;28;20178;-67
2022/02/27 04:21:35;;;;;;;23.23;9.27;;;;;;;;;;5043330;28;20181;-66
2022/02/27 04:24:01;;;;;;;24.80;9.83;;;;;;;;;;5048196;28;20200;-66
2022/02/27 04:26:27;;;;;;;28.83;8.80;;;;;;;;;;5044096;28;20182;-66
2022/02/27 04:28:52;;;;;;;24.63;9.03;;;;;;;;;;5042898;28;20208;-67
2022/02/27 04:31:18;;;;;;;34.17;9.73;;;;;;;;;;5045602;28;20264;-66
2022/02/27 04:33:43;;;;;;;20.53;9.27;;;;;;;;;;5043460;28;20347;-66
2022/02/27 04:36:09;;;;;;;25.57;9.00;;;;;;;;;;5040865;28;20214;-66
2022/02/27 04:38:34;;;;;;;23.57;8.43;;;;;;;;;;5042917;28;20700;-66
2022/02/27 04:40:59;;;;;;;28.37;9.43;;;;;;;;;;5044826;28;20580;-66
2022/02/27 04:43:25;;;;;;;23.17;8.60;;;;;;;;;;5046459;28;20182;-67
2022/02/27 04:45:50;;;;;;;24.40;9.40;;;;;;;;;;5044104;28;20273;-67
2022/02/27 04:48:16;;;;;;;37.27;9.90;;;;;;;;;;5043788;28;20274;-67
2022/02/27 04:50:41;;;;;;;20.27;8.33;;;;;;;;;;5041852;28;20539;-67
2022/02/27 04:53:06;;;;;;;24.80;9.17;;;;;;;;;;5039007;28;20856;-67
2022/02/27 04:55:32;;;;;;;30.57;10.27;;;;;;;;;;5041247;28;20206;-67
2022/02/27 04:57:57;;;;;;;21.67;8.63;;;;;;;;;;5048126;28;20369;-67
2022/02/27 05:00:23;;;;;;;30.67;9.70;;;;;;;;;;5049630;28;20521;-67
2022/02/27 05:02:48;;;;;;;25.47;9.03;;;;;;;;;;5045314;28;20197;-67
2022/02/27 05:05:13;;;;;;;24.83;9.30;;;;;;;;;;5051080;28;20186;-68
2022/02/27 05:07:39;;;;;;;18.87;8.17;;;;;;;;;;5047123;28;20211;-67
2022/02/27 05:10:08;;;;;;;24.03;9.00;;;;;;;;;;5055029;28;20189;-68
2022/02/27 05:12:35;;;;;;;29.20;9.33;;;;;;;;;;5045983;28;20185;-67
2022/02/27 05:15:01;;;;;;;25.77;10.23;;;;;;;;;;5045427;28;20267;-68
2022/02/27 05:17:26;;;;;;;26.13;8.67;;;;;;;;;;5044036;28;20593;-67
2022/02/27 05:19:51;;;;;;;28.47;8.67;;;;;;;;;;5042162;28;20771;-67
2022/02/27 05:22:17;;;;;;;23.47;8.87;;;;;;;;;;5045006;28;20230;-68
2022/02/27 05:24:42;;;;;;;23.93;9.70;;;;;;;;;;5042701;28;20190;-67
2022/02/27 05:27:07;;;;;;;25.37;9.40;;;;;;;;;;5043750;28;20276;-67
2022/02/27 05:29:32;;;;;;;23.87;8.53;;;;;;;;;;5049088;28;20285;-68
2022/02/27 05:31:59;;;;;;;27.67;9.10;;;;;;;;;;5045551;28;20300;-67
2022/02/27 05:34:25;;;;;;;19.50;9.30;;;;;;;;;;5056668;28;20711;-68
2022/02/27 05:36:51;;;;;;;26.60;9.20;;;;;;;;;;5045494;28;20203;-68
2022/02/27 05:39:16;;;;;;;25.37;8.93;;;;;;;;;;5041150;28;20177;-67
2022/02/27 05:41:42;;;;;;;26.97;8.73;;;;;;;;;;5045349;28;20190;-67
2022/02/27 05:44:08;;;;;;;27.63;8.40;;;;;;;;;;5047210;28;20264;-67
2022/02/27 05:46:33;;;;;;;21.47;9.50;;;;;;;;;;5044501;28;20286;-67
2022/02/27 05:48:59;;;;;;;24.63;8.40;;;;;;;;;;5048479;28;20181;-67
2022/02/27 05:51:24;;;;;;;26.03;9.10;;;;;;;;;;5043543;28;20193;-67
2022/02/27 05:53:49;;;;;;;28.23;9.57;;;;;;;;;;5049703;28;20758;-68
2022/02/27 05:56:15;;;;;;;24.37;8.40;;;;;;;;;;5040801;28;20214;-68
2022/02/27 05:58:40;;;;;;;21.10;9.20;;;;;;;;;;5045415;28;20185;-68
2022/02/27 06:01:06;;;;;;;26.73;8.83;;;;;;;;;;5041601;28;20197;-68
2022/02/27 06:03:31;;;;;;;31.13;9.33;;;;;;;;;;5043672;28;20185;-68
2022/02/27 06:05:56;;;;;;;25.93;7.97;;;;;;;;;;5043793;28;20181;-68
2022/02/27 06:08:22;;;;;;;17.00;7.97;;;;;;;;;;5046629;28;20274;-68
2022/02/27 06:10:47;;;;;;;21.40;8.37;;;;;;;;;;5041009;28;20232;-68
2022/02/27 06:13:12;;;;;;;20.57;7.90;;;;;;;;;;5049033;28;20595;-67
2022/02/27 06:15:38;;;;;;;22.57;8.10;;;;;;;;;;5040775;28;20229;-67
2022/02/27 06:18:04;;;;;;;27.27;8.80;;;;;;;;;;5041799;28;20243;-67
2022/02/27 06:20:29;;;;;;;26.97;8.80;;;;;;;;;;5039422;28;20185;-67
2022/02/27 06:22:55;;;;;;;28.70;8.93;;;;;;;;;;5045577;28;20185;-66
2022/02/27 06:25:21;;;;;;;25.60;8.67;;;;;;;;;;5042890;28;20597;-67
2022/02/27 06:27:47;;;;;;;27.70;8.63;;;;;;;;;;5042186;28;20197;-67
2022/02/27 06:30:14;;;;;;;27.93;8.33;;;;;;;;;;5045184;28;20641;-67
2022/02/27 06:32:40;;;;;;;31.80;9.13;;;;;;;;;;5046389;28;20181;-67
2022/02/27 06:35:10;;;;;;;26.93;8.17;;;;;;;;;;5044824;28;20212;-67
2022/02/27 06:37:35;;;;;;;20.73;8.70;;;;;;;;;;5045947;28;20235;-67
2022/02/27 06:40:01;;;;;;;22.07;9.17;;;;;;;;;;5048451;28;20194;-67
2022/02/27 06:42:27;;;;;;;24.87;8.33;;;;;;;;;;5047294;28;20200;-67
2022/02/27 06:44:52;;;;;;;17.37;8.83;;;;;;;;;;5045420;28;20189;-67
2022/02/27 06:47:18;;;;;;;22.70;8.00;;;;;;;;;;5042283;28;20187;-67
2022/02/27 06:49:43;;;;;;;25.67;9.17;;;;;;;;;;5044620;28;20193;-67
2022/02/27 06:52:09;;;;;;;28.87;9.27;;;;;;;;;;5046148;28;20212;-67
2022/02/27 06:54:34;;;;;;;28.10;9.33;;;;;;;;;;5049296;28;20931;-67
2022/02/27 06:57:00;;;;;;;27.73;8.67;;;;;;;;;;5049148;28;20715;-67
2022/02/27 06:59:25;;;;;;;26.97;9.03;;;;;;;;;;5044259;28;20185;-67
2022/02/27 07:01:50;;;;;;;27.23;9.43;;;;;;;;;;5047060;28;20192;-66
2022/02/27 07:04:16;;;;;;;23.77;8.77;;;;;;;;;;5042789;28;20653;-67
2022/02/27 07:06:41;;;;;;;25.07;8.40;;;;;;;;;;5053701;28;20256;-67
2022/02/27 07:09:07;;;;;;;19.43;8.57;;;;;;;;;;5042380;28;20192;-66
2022/02/27 07:11:32;;;;;;;23.47;8.53;;;;;;;;;;5054979;28;20184;-66
2022/02/27 07:13:58;;;;;;;27.47;8.50;;;;;;;;;;5040705;28;20219;-67
2022/02/27 07:16:24;;;;;;;20.90;8.73;;;;;;;;;;5043786;28;20247;-66
2022/02/27 07:18:49;;;;;;;21.50;9.17;;;;;;;;;;5041772;28;20197;-67
2022/02/27 07:21:15;;;;;;;30.50;9.57;;;;;;;;;;5047647;28;20338;-67
2022/02/27 07:23:41;;;;;;;31.30;9.27;;;;;;;;;;5042634;28;20184;-67
2022/02/27 07:26:06;;;;;;;20.57;8.70;;;;;;;;;;5047090;28;20646;-67
2022/02/27 07:28:31;;;;;;;17.40;7.67;;;;;;;;;;5048543;28;20545;-67
2022/02/27 07:30:57;;;;;;;22.83;7.83;;;;;;;;;;5045265;28;20680;-67
2022/02/27 07:33:23;;;;;;;21.77;9.23;;;;;;;;;;5050419;28;20294;-67
2022/02/27 07:35:48;;;;;;;21.70;8.47;;;;;;;;;;5042822;28;20213;-67
2022/02/27 07:38:14;;;;;;;20.50;8.37;;;;;;;;;;5041014;28;20201;-67
2022/02/27 07:40:39;;;;;;;21.03;7.93;;;;;;;;;;5046826;28;20299;-67
2022/02/27 07:43:05;;;;;;;18.73;8.37;;;;;;;;;;5052271;28;20190;-67
2022/02/27 07:45:30;;;;;;;17.70;6.93;;;;;;;;;;5048041;28;20193;-67
2022/02/27 07:47:55;;;;;;;21.63;7.53;;;;;;;;;;5050681;28;20255;-66
2022/02/27 07:50:21;;;;;;;22.03;7.90;;;;;;;;;;5046325;28;20194;-67
2022/02/27 07:52:46;;;;;;;16.37;8.00;;;;;;;;;;4347237;28;9999935;-67
2022/02/27 07:55:12;;;;;;;18.50;7.17;;;;;;;;;;5044520;28;20563;-67
2022/02/27 07:57:37;;;;;;;20.57;7.53;;;;;;;;;;5045440;28;20185;-67
2022/02/27 08:00:06;;;;;;;24.83;7.13;;;;;;;;;;5042208;28;20602;-67
2022/02/27 08:02:32;;;;;;;18.20;6.90;;;;;;;;;;5052302;28;20641;-67
2022/02/27 08:04:57;;;;;;;15.87;6.37;;;;;;;;;;5048718;28;20503;-67
2022/02/27 08:07:23;;;;;;;21.93;6.83;;;;;;;;;;5049127;28;20258;-67
2022/02/27 08:09:48;;;;;;;23.20;7.13;;;;;;;;;;5053593;28;20185;-67
2022/02/27 08:12:13;;;;;;;19.33;6.97;;;;;;;;;;5044666;28;20173;-67
2022/02/27 08:14:39;;;;;;;16.60;6.67;;;;;;;;;;5044276;28;20237;-67
2022/02/27 08:17:04;;;;;;;19.13;6.47;;;;;;;;;;5048727;28;20220;-67
2022/02/27 08:19:29;;;;;;;21.23;6.33;;;;;;;;;;5051849;28;20193;-67
2022/02/27 08:21:55;;;;;;;15.47;5.43;;;;;;;;;;5047722;28;20735;-68
2022/02/27 08:24:20;;;;;;;16.80;6.40;;;;;;;;;;5050020;28;20188;-67
2022/02/27 08:26:45;;;;;;;15.60;5.33;;;;;;;;;;5044721;28;20189;-67
2022/02/27 08:29:11;;;;;;;20.60;6.07;;;;;;;;;;5052217;28;20177;-67
2022/02/27 08:31:40;;;;;;;12.87;5.57;;;;;;;;;;5046830;28;20208;-67
2022/02/27 08:34:06;;;;;;;19.73;5.60;;;;;;;;;;5050635;28;20185;-67
2022/02/27 08:36:31;;;;;;;14.87;5.73;;;;;;;;;;5045861;28;20583;-67
2022/02/27 08:38:59;;;;;;;21.40;5.53;;;;;;;;;;5048458;28;20181;-67
2022/02/27 08:41:26;;;;;;;13.20;5.60;;;;;;;;;;5049609;28;20195;-67
2022/02/27 08:43:51;;;;;;;15.50;5.33;;;;;;;;;;5048422;28;20284;-67
2022/02/27 08:46:16;;;;;;;15.97;5.40;;;;;;;;;;5048808;28;20279;-67
2022/02/27 08:48:42;;;;;;;14.47;5.67;;;;;;;;;;5047492;28;20264;-67
2022/02/27 08:51:07;;;;;;;20.70;5.27;;;;;;;;;;5044494;28;20186;-67
2022/02/27 08:53:32;;;;;;;16.07;5.60;;;;;;;;;;5043815;28;20193;-67
2022/02/27 08:55:58;;;;;;;13.07;4.63;;;;;;;;;;5039391;28;20316;-67
2022/02/27 08:58:23;;;;;;;13.73;5.17;;;;;;;;;;5050076;28;20197;-67
2022/02/27 09:00:48;;;;;;;13.83;5.27;;;;;;;;;;5040641;28;20322;-67
2022/02/27 09:03:15;;;;;;;18.13;4.73;;;;;;;;;;5042505;28;20247;-67
2022/02/27 09:05:40;;;;;;;12.70;5.03;;;;;;;;;;5039933;28;20578;-67
2022/02/27 09:08:06;;;;;;;18.87;5.43;;;;;;;;;;5042896;28;20217;-67
2022/02/27 09:10:31;;;;;;;15.43;5.20;;;;;;;;;;5045336;28;20884;-67
2022/02/27 09:12:56;;;;;;;11.93;3.83;;;;;;;;;;5043742;28;20200;-67
2022/02/27 09:15:22;;;;;;;13.53;4.37;;;;;;;;;;5048372;28;20229;-67
2022/02/27 09:17:47;;;;;;;11.00;4.50;;;;;;;;;;5039574;28;20211;-67
2022/02/27 09:20:14;;;;;;;10.90;4.23;;;;;;;;;;5044289;28;20467;-67
2022/02/27 09:22:39;;;;;;;13.17;4.33;;;;;;;;;;5039815;28;20607;-67
2022/02/27 09:25:06;;;;;;;12.43;3.87;;;;;;;;;;5041550;28;20189;-67
2022/02/27 09:27:31;;;;;;;16.83;4.20;;;;;;;;;;5042470;28;20464;-67
2022/02/27 09:29:56;;;;;;;12.97;4.13;;;;;;;;;;5052121;28;20204;-67
2022/02/27 09:32:22;;;;;;;14.10;4.10;;;;;;;;;;5043141;28;20182;-67
2022/02/27 09:34:48;;;;;;;12.40;4.90;;;;;;;;;;5046813;28;20239;-67
2022/02/27 09:37:13;;;;;;;10.47;4.10;;;;;;;;;;5046697;28;20301;-67
2022/02/27 09:39:38;;;;;;;9.90;4.20;;;;;;;;;;5049507;28;20597;-67
2022/02/27 09:42:05;;;;;;;10.90;3.90;;;;;;;;;;5044627;28;20189;-67
2022/02/27 09:44:38;;;;;;;10.60;3.90;;;;;;;;;;5048345;28;20548;-67
2022/02/27 09:47:03;;;;;;;9.17;3.37;;;;;;;;;;5046831;28;20292;-67
2022/02/27 09:49:29;;;;;;;8.23;3.83;;;;;;;;;;5050595;28;20287;-67
2022/02/27 09:51:55;;;;;;;11.63;4.10;;;;;;;;;;5050293;28;20180;-67
2022/02/27 09:54:21;;;;;;;11.07;3.70;;;;;;;;;;5055000;28;20598;-67
2022/02/27 09:56:47;;;;;;;10.47;3.33;;;;;;;;;;5045799;28;20177;-67
2022/02/27 09:59:12;;;;;;;10.60;3.67;;;;;;;;;;5046362;28;20193;-67
2022/02/27 10:01:59;;;;;;;9.63;3.40;;;;;;;;;;5050137;28;20301;-68
2022/02/27 10:04:25;;;;;;;10.90;3.80;;;;;;;;;;5044561;28;20224;-67
2022/02/27 10:06:51;;;;;;;10.90;3.13;;;;;;;;;;5047938;28;20185;-67
2022/02/27 10:09:23;;;;;;;12.27;3.43;;;;;;;;;;5051234;28;20193;-67
2022/02/27 10:11:50;;;;;;;7.50;3.00;;;;;;;;;;5049751;28;20641;-68
2022/02/27 10:14:28;;;;;;;7.70;3.30;;;;;;;;;;5044862;28;20185;-67
2022/02/27 10:17:04;;;;;;;9.00;3.17;;;;;;;;;;5054076;28;20410;-67
2022/02/27 10:19:32;;;;;;;11.77;3.23;;;;;;;;;;5046454;28;20177;-67
2022/02/27 10:21:58;;;;;;;7.13;3.27;;;;;;;;;;5047685;28;20260;-66
2022/02/27 10:24:24;;;;;;;8.10;2.93;;;;;;;;;;5046142;28;20272;-67
2022/02/27 10:26:51;;;;;;;7.73;2.83;;;;;;;;;;5032340;28;20717;-67
2022/02/27 10:29:21;;;;;;;12.23;3.27;;;;;;;;;;5044905;28;20865;-67
2022/02/27 10:31:51;;;;;;;5.53;2.80;;;;;;;;;;5057401;28;20204;-67
2022/02/27 10:34:25;;;;;;;9.07;3.13;;;;;;;;;;5043651;28;20196;-67
2022/02/27 10:37:14;;;;;;;9.93;3.37;;;;;;;;;;5050933;28;20201;-67
2022/02/27 10:39:48;;;;;;;9.53;2.73;;;;;;;;;;5046861;28;20184;-67
2022/02/27 10:42:16;;;;;;;8.10;2.80;;;;;;;;;;5045364;28;20268;-67
2022/02/27 10:44:49;;;;;;;9.17;3.17;;;;;;;;;;5052572;28;20180;-67
2022/02/27 10:47:19;;;;;;;7.10;2.50;;;;;;;;;;5042632;28;20189;-67
2022/02/27 10:49:45;;;;;;;6.87;3.10;;;;;;;;;;5053826;28;20185;-67
2022/02/27 10:52:13;;;;;;;6.40;2.63;;;;;;;;;;5043573;28;20185;-68
2022/02/27 10:54:40;;;;;;;6.57;2.80;;;;;;;;;;5046027;28;20180;-67
2022/02/27 10:57:10;;;;;;;8.40;2.97;;;;;;;;;;5042593;28;20619;-67
2022/02/27 10:59:39;;;;;;;8.33;2.77;;;;;;;;;;5043579;28;20273;-67
2022/02/27 11:02:06;;;;;;;6.30;2.53;;;;;;;;;;5040214;28;20663;-67
2022/02/27 11:04:34;;;;;;;8.47;2.70;;;;;;;;;;5048833;28;20513;-66
2022/02/27 11:07:00;;;;;;;4.67;2.80;;;;;;;;;;5040167;28;20232;-66
2022/02/27 11:09:25;;;;;;;9.87;2.90;;;;;;;;;;5047400;28;20204;-66
2022/02/27 11:11:51;;;;;;;8.03;3.10;;;;;;;;;;5044925;28;20236;-66
2022/02/27 11:14:16;;;;;;;7.97;2.77;;;;;;;;;;5056645;28;20212;-67
2022/02/27 11:16:42;;;;;;;7.53;2.47;;;;;;;;;;5043868;28;20665;-66
2022/02/27 11:19:08;;;;;;;5.83;2.33;;;;;;;;;;5058387;28;20185;-66
2022/02/27 11:21:34;;;;;;;4.93;2.50;;;;;;;;;;5042252;28;20318;-66
2022/02/27 11:24:01;;;;;;;8.97;2.63;;;;;;;;;;5055504;28;20288;-66
2022/02/27 11:26:27;;;;;;;5.13;2.57;;;;;;;;;;5044680;28;20169;-66
2022/02/27 11:28:52;;;;;;;4.67;2.60;;;;;;;;;;5045967;28;20199;-66
2022/02/27 11:31:19;;;;;;;7.50;2.50;;;;;;;;;;5046139;28;20410;-66
2022/02/27 11:33:44;;;;;;;7.07;2.75;;;;;;;;;;5046870;28;20504;-66
2022/02/27 11:36:20;;;;;;;5.13;2.30;;;;;;;;;;5046981;28;20248;-66
2022/02/27 11:38:59;;;;;;;5.67;2.47;;;;;;;;;;5047490;28;20191;-66
2022/02/27 11:41:24;;;;;;;4.82;2.17;;;;;;;;;;5044803;28;20178;-66
2022/02/27 11:43:55;;;;;;;6.97;2.17;;;;;;;;;;5046525;28;20215;-66
2022/02/27 11:46:37;;;;;;;8.30;2.30;;;;;;;;;;5045960;28;20173;-66
2022/02/27 11:49:10;;;;;;;7.77;2.00;;;;;;;;;;5045401;28;20254;-66
2022/02/27 11:51:35;;;;;;;6.68;2.00;;;;;;;;;;5048739;28;20173;-66
2022/02/27 11:54:07;;;;;;;5.25;2.10;;;;;;;;;;5046094;28;20204;-66
2022/02/27 11:56:33;;;;;;;5.60;1.88;;;;;;;;;;5052246;28;20201;-66
2022/02/27 11:58:58;;;;;;;5.15;2.08;;;;;;;;;;5042795;28;20200;-66
2022/02/27 12:01:49;;;;;;;6.05;2.47;;;;;;;;;;5048387;28;20178;-66
2022/02/27 12:04:32;;;;;;;7.33;2.50;;;;;;;;;;5039556;28;20236;-66
2022/02/27 12:06:57;;;;;;;3.47;1.67;;;;;;;;;;5044720;28;20195;-67
2022/02/27 12:09:22;;;;;;;3.78;2.10;;;;;;;;;;5044771;28;20656;-66
2022/02/27 12:11:48;;;;;;;4.43;2.08;;;;;;;;;;5048151;28;20181;-67
2022/02/27 12:14:13;;;;;;;5.50;1.80;;;;;;;;;;5044223;28;20196;-66
2022/02/27 12:16:46;;;;;;;6.57;1.73;;;;;;;;;;5047754;28;20205;-66
2022/02/27 12:19:26;;;;;;;7.68;2.17;;;;;;;;;;5046916;28;20177;-66
2022/02/27 12:21:58;;;;;;;7.00;2.10;;;;;;;;;;5041262;28;20177;-66
2022/02/27 12:24:26;;;;;;;6.47;2.20;;;;;;;;;;4346661;28;10000711;-67
2022/02/27 12:26:52;;;;;;;6.73;1.90;;;;;;;;;;5042584;28;20843;-67
2022/02/27 12:29:27;;;;;;;5.70;1.90;;;;;;;;;;5040811;28;20185;-66
2022/02/27 12:31:53;;;;;;;4.13;1.70;;;;;;;;;;5043158;28;20662;-66
2022/02/27 12:34:20;;;;;;;5.38;1.70;;;;;;;;;;5045518;28;20182;-65
2022/02/27 12:36:54;;;;;;;6.00;1.98;;;;;;;;;;5046575;28;20205;-66
2022/02/27 12:39:20;;;;;;;5.07;1.80;;;;;;;;;;5046289;28;20191;-66
2022/02/27 12:41:54;;;;;;;6.55;1.85;;;;;;;;;;5043778;28;20544;-66
2022/02/27 12:44:26;;;;;;;7.68;2.53;;;;;;;;;;5043636;28;20216;-66
2022/02/27 12:46:53;;;;;;;5.80;1.80;;;;;;;;;;5045871;28;20607;-66
2022/02/27 12:52:19;;;;;;;4.90;1.88;;;;;;;;;;5047824;28;20211;-66
2022/02/27 12:54:47;;;;;;;5.53;2.17;;;;;;;;;;5044535;28;20181;-66
2022/02/27 12:57:12;;;;;;;4.05;2.17;;;;;;;;;;5046677;28;20627;-67
2022/02/27 12:59:40;;;;;;;5.25;1.75;;;;;;;;;;5046260;28;20755;-67
2022/02/27 13:02:08;;;;;;;6.63;2.20;;;;;;;;;;5056851;28;20250;-66
2022/02/27 13:04:35;;;;;;;4.05;2.30;;;;;;;;;;5043521;28;20509;-67
2022/02/27 13:07:03;;;;;;;5.85;1.80;;;;;;;;;;5052794;28;20678;-67
2022/02/27 13:09:30;;;;;;;9.20;2.30;;;;;;;;;;5044586;28;20177;-67
2022/02/27 13:11:56;;;;;;;7.57;2.37;;;;;;;;;;5050192;28;20193;-67
2022/02/27 13:14:24;;;;;;;6.57;2.17;;;;;;;;;;5048459;28;20204;-67
2022/02/27 13:16:52;;;;;;;6.50;2.20;;;;;;;;;;5051253;28;20228;-65
2022/02/27 13:19:33;;;;;;;5.47;2.33;;;;;;;;;;5043827;28;20284;-65
2022/02/27 13:22:00;;;;;;;8.70;2.20;;;;;;;;;;5048744;28;20265;-66
2022/02/27 13:24:31;;;;;;;4.43;2.00;;;;;;;;;;5048193;28;20196;-66
2022/02/27 13:26:57;;;;;;;5.90;2.33;;;;;;;;;;5046490;28;20266;-67
2022/02/27 13:29:23;;;;;;;5.82;2.10;;;;;;;;;;5042632;28;20239;-67
2022/02/27 13:31:51;;;;;;;6.17;2.17;;;;;;;;;;5045978;28;20217;-66
2022/02/27 13:34:17;;;;;;;7.40;2.13;;;;;;;;;;5045115;28;20185;-67
2022/02/27 13:36:42;;;;;;;4.55;2.10;;;;;;;;;;5050018;28;20302;-67
2022/02/27 13:39:08;;;;;;;4.70;2.47;;;;;;;;;;5050592;28;20185;-67
2022/02/27 13:41:37;;;;;;;5.97;2.23;;;;;;;;;;5045791;28;20190;-67
2022/02/27 13:44:03;;;;;;;4.73;2.10;;;;;;;;;;5051877;28;20188;-67
2022/02/27 13:46:28;;;;;;;5.60;2.10;;;;;;;;;;5044088;28;20638;-67
2022/02/27 13:49:11;;;;;;;4.82;2.28;;;;;;;;;;5044919;28;20229;-67
2022/02/27 13:51:38;;;;;;;4.20;2.03;;;;;;;;;;5034204;28;20201;-67
2022/02/27 13:54:14;;;;;;;4.70;2.30;;;;;;;;;;5048395;28;20201;-67
2022/02/27 13:56:39;;;;;;;5.35;2.00;;;;;;;;;;5042211;28;20201;-66
2022/02/27 13:59:15;;;;;;;5.25;2.20;;;;;;;;;;5043436;28;20955;-66
2022/02/27 14:01:58;;;;;;;5.65;2.22;;;;;;;;;;5057898;28;20586;-66
2022/02/27 14:04:23;;;;;;;4.28;2.13;;;;;;;;;;5050438;28;20208;-66
2022/02/27 14:06:50;;;;;;;6.18;2.00;;;;;;;;;;5043705;28;20174;-66
2022/02/27 14:09:15;;;;;;;6.68;2.17;;;;;;;;;;5042259;28;20185;-67
2022/02/27 14:11:41;;;;;;;6.25;2.03;;;;;;;;;;5040258;28;20177;-67
2022/02/27 14:14:08;;;;;;;5.25;2.03;;;;;;;;;;5043339;28;20193;-67
2022/02/27 14:16:35;;;;;;;3.22;1.95;;;;;;;;;;5048284;28;20706;-66
2022/02/27 14:19:08;;;;;;;8.25;2.50;;;;;;;;;;5039103;28;20540;-66
2022/02/27 14:21:38;;;;;;;4.95;2.13;;;;;;;;;;5053402;28;20196;-68
2022/02/27 14:24:07;;;;;;;8.70;2.47;;;;;;;;;;5040933;28;20227;-68
2022/02/27 14:26:36;;;;;;;7.07;2.17;;;;;;;;;;5047288;28;20238;-67
2022/02/27 14:29:11;;;;;;;9.17;2.50;;;;;;;;;;5036413;28;20187;-67
2022/02/27 14:31:42;;;;;;;6.73;2.03;;;;;;;;;;5048428;28;20683;-67
2022/02/27 14:34:11;;;;;;;3.77;1.87;;;;;;;;;;5040950;28;20240;-68